sensor_id;sensor_type;location;lat;lon;timestamp;P1;durP1;ratioP1;P2;durP2;ratioP2
18623;SDS011;9441;51.420;7.036;2022-09-20T00:00:00;21.37;;;5.93;;
18623;SDS011;9441;51.420;7.036;2022-09-20T00:01:06;22.53;;;5.30;;
18623;SDS011;9441;51.420;7.036;2022-09-20T00:02:08;20.70;;;5.87;;
18623;SDS011;9441;51.420;7.036;2022-09-20T00:03:10;14.63;;;5.33;;
18623;SDS011;9441;51.420;7.036;2022-09-20T00:04:12;21.33;;;5.33;;
18623;SDS011;9441;51.420;7.036;2022-09-20T00:05:14;26.10;;;5.90;;
18623;SDS011;9441;51.420;7.036;2022-09-20T00:06:16;19.70;;;5.47;;
18623;SDS011;9441;51.420;7.036;2022-09-20T00:07:19;16.57;;;5.23;;
18623;SDS011;9441;51.420;7.036;2022-09-20T00:08:20;16.13;;;4.73;;
18623;SDS011;9441;51.420;7.036;2022-09-20T00:09:22;19.90;;;5.80;;
18623;SDS011;9441;51.420;7.036;2022-09-20T00:10:23;18.53;;;5.33;;
18623;SDS011;9441;51.420;7.036;2022-09-20T00:11:27;18.33;;;5.67;;
18623;SDS011;9441;51.420;7.036;2022-09-20T00:12:29;18.60;;;5.67;;
18623;SDS011;9441;51.420;7.036;2022-09-20T00:13:34;24.80;;;5.70;;
18623;SDS011;9441;51.420;7.036;2022-09-20T00:14:36;14.83;;;4.77;;
18623;SDS011;9441;51.420;7.036;2022-09-20T00:15:41;18.60;;;5.30;;
18623;SDS011;9441;51.420;7.036;2022-09-20T00:16:43;14.57;;;5.03;;
18623;SDS011;9441;51.420;7.036;2022-09-20T00:17:45;26.27;;;5.10;;
18623;SDS011;9441;51.420;7.036;2022-09-20T00:18:47;18.90;;;5.27;;
18623;SDS011;9441;51.420;7.036;2022-09-20T00:19:49;18.43;;;5.67;;
18623;SDS011;9441;51.420;7.036;2022-09-20T00:20:51;18.50;;;4.83;;
18623;SDS011;9441;51.420;7.036;2022-09-20T00:21:53;14.47;;;4.70;;
18623;SDS011;9441;51.420;7.036;2022-09-20T00:22:55;15.10;;;4.70;;
18623;SDS011;9441;51.420;7.036;2022-09-20T00:23:56;21.60;;;5.00;;
18623;SDS011;9441;51.420;7.036;2022-09-20T00:24:59;15.13;;;5.30;;
18623;SDS011;9441;51.420;7.036;2022-09-20T00:26:00;20.70;;;5.13;;
18623;SDS011;9441;51.420;7.036;2022-09-20T00:27:04;17.30;;;4.97;;
18623;SDS011;9441;51.420;7.036;2022-09-20T00:28:05;20.33;;;5.50;;
18623;SDS011;9441;51.420;7.036;2022-09-20T00:29:08;19.07;;;5.23;;
18623;SDS011;9441;51.420;7.036;2022-09-20T00:30:12;17.67;;;5.50;;
18623;SDS011;9441;51.420;7.036;2022-09-20T00:31:13;23.93;;;5.57;;
18623;SDS011;9441;51.420;7.036;2022-09-20T00:32:16;15.60;;;5.13;;
18623;SDS011;9441;51.420;7.036;2022-09-20T00:33:17;17.30;;;4.87;;
18623;SDS011;9441;51.420;7.036;2022-09-20T00:34:19;18.60;;;5.13;;
18623;SDS011;9441;51.420;7.036;2022-09-20T00:35:41;20.37;;;4.87;;
18623;SDS011;9441;51.420;7.036;2022-09-20T00:36:42;13.03;;;4.70;;
18623;SDS011;9441;51.420;7.036;2022-09-20T00:37:45;19.27;;;5.00;;
18623;SDS011;9441;51.420;7.036;2022-09-20T00:38:46;19.17;;;5.20;;
18623;SDS011;9441;51.420;7.036;2022-09-20T00:39:48;15.57;;;4.90;;
18623;SDS011;9441;51.420;7.036;2022-09-20T00:40:49;15.17;;;4.87;;
18623;SDS011;9441;51.420;7.036;2022-09-20T00:41:51;19.20;;;5.07;;
18623;SDS011;9441;51.420;7.036;2022-09-20T00:42:52;25.27;;;5.40;;
18623;SDS011;9441;51.420;7.036;2022-09-20T00:43:54;18.20;;;4.70;;
18623;SDS011;9441;51.420;7.036;2022-09-20T00:44:57;21.50;;;5.07;;
18623;SDS011;9441;51.420;7.036;2022-09-20T00:46:00;22.47;;;5.17;;
18623;SDS011;9441;51.420;7.036;2022-09-20T00:47:03;17.03;;;5.63;;
18623;SDS011;9441;51.420;7.036;2022-09-20T00:48:09;13.57;;;5.50;;
18623;SDS011;9441;51.420;7.036;2022-09-20T00:49:14;17.77;;;4.83;;
18623;SDS011;9441;51.420;7.036;2022-09-20T00:50:23;14.67;;;4.87;;
18623;SDS011;9441;51.420;7.036;2022-09-20T00:51:29;16.17;;;5.30;;
18623;SDS011;9441;51.420;7.036;2022-09-20T00:52:34;19.73;;;4.90;;
18623;SDS011;9441;51.420;7.036;2022-09-20T00:53:37;20.53;;;5.07;;
18623;SDS011;9441;51.420;7.036;2022-09-20T00:54:41;17.67;;;5.10;;
18623;SDS011;9441;51.420;7.036;2022-09-20T00:55:44;19.90;;;5.70;;
18623;SDS011;9441;51.420;7.036;2022-09-20T00:56:49;18.47;;;5.57;;
18623;SDS011;9441;51.420;7.036;2022-09-20T00:57:52;17.03;;;5.43;;
18623;SDS011;9441;51.420;7.036;2022-09-20T00:58:55;16.77;;;5.27;;
18623;SDS011;9441;51.420;7.036;2022-09-20T01:00:04;16.57;;;5.63;;
18623;SDS011;9441;51.420;7.036;2022-09-20T01:01:08;24.40;;;6.13;;
18623;SDS011;9441;51.420;7.036;2022-09-20T01:02:11;16.97;;;5.60;;
18623;SDS011;9441;51.420;7.036;2022-09-20T01:03:16;13.60;;;5.20;;
18623;SDS011;9441;51.420;7.036;2022-09-20T01:04:22;15.30;;;5.37;;
18623;SDS011;9441;51.420;7.036;2022-09-20T01:05:27;17.33;;;5.47;;
18623;SDS011;9441;51.420;7.036;2022-09-20T01:06:28;23.63;;;6.10;;
18623;SDS011;9441;51.420;7.036;2022-09-20T01:07:32;23.20;;;5.30;;
18623;SDS011;9441;51.420;7.036;2022-09-20T01:08:33;26.47;;;6.67;;
18623;SDS011;9441;51.420;7.036;2022-09-20T01:09:36;20.23;;;5.40;;
18623;SDS011;9441;51.420;7.036;2022-09-20T01:10:37;19.07;;;5.43;;
18623;SDS011;9441;51.420;7.036;2022-09-20T01:11:39;22.63;;;6.43;;
18623;SDS011;9441;51.420;7.036;2022-09-20T01:12:41;19.60;;;5.70;;
18623;SDS011;9441;51.420;7.036;2022-09-20T01:13:45;20.13;;;6.10;;
18623;SDS011;9441;51.420;7.036;2022-09-20T01:14:46;28.97;;;6.30;;
18623;SDS011;9441;51.420;7.036;2022-09-20T01:15:52;16.47;;;5.53;;
18623;SDS011;9441;51.420;7.036;2022-09-20T01:16:54;15.97;;;6.03;;
18623;SDS011;9441;51.420;7.036;2022-09-20T01:17:59;19.90;;;6.20;;
18623;SDS011;9441;51.420;7.036;2022-09-20T01:19:03;18.37;;;5.93;;
18623;SDS011;9441;51.420;7.036;2022-09-20T01:20:12;19.97;;;6.00;;
18623;SDS011;9441;51.420;7.036;2022-09-20T01:21:18;20.43;;;6.10;;
18623;SDS011;9441;51.420;7.036;2022-09-20T01:22:21;20.10;;;6.27;;
18623;SDS011;9441;51.420;7.036;2022-09-20T01:23:30;26.53;;;6.20;;
18623;SDS011;9441;51.420;7.036;2022-09-20T01:24:41;26.70;;;6.33;;
18623;SDS011;9441;51.420;7.036;2022-09-20T01:25:53;20.27;;;6.80;;
18623;SDS011;9441;51.420;7.036;2022-09-20T01:27:12;25.63;;;6.57;;
18623;SDS011;9441;51.420;7.036;2022-09-20T01:28:22;24.17;;;7.10;;
18623;SDS011;9441;51.420;7.036;2022-09-20T01:29:28;25.83;;;6.20;;
18623;SDS011;9441;51.420;7.036;2022-09-20T01:30:44;18.40;;;6.10;;
18623;SDS011;9441;51.420;7.036;2022-09-20T01:31:52;23.30;;;6.53;;
18623;SDS011;9441;51.420;7.036;2022-09-20T01:33:01;15.80;;;6.37;;
18623;SDS011;9441;51.420;7.036;2022-09-20T01:34:07;21.07;;;6.50;;
18623;SDS011;9441;51.420;7.036;2022-09-20T01:35:13;19.37;;;6.37;;
18623;SDS011;9441;51.420;7.036;2022-09-20T01:36:21;20.73;;;6.57;;
18623;SDS011;9441;51.420;7.036;2022-09-20T01:37:26;17.80;;;5.90;;
18623;SDS011;9441;51.420;7.036;2022-09-20T01:38:33;16.60;;;6.17;;
18623;SDS011;9441;51.420;7.036;2022-09-20T01:39:41;16.97;;;6.27;;
18623;SDS011;9441;51.420;7.036;2022-09-20T01:40:53;25.40;;;6.43;;
18623;SDS011;9441;51.420;7.036;2022-09-20T01:42:04;21.73;;;7.13;;
18623;SDS011;9441;51.420;7.036;2022-09-20T01:43:08;21.30;;;6.33;;
18623;SDS011;9441;51.420;7.036;2022-09-20T01:44:21;25.57;;;7.00;;
18623;SDS011;9441;51.420;7.036;2022-09-20T01:45:29;17.77;;;6.70;;
18623;SDS011;9441;51.420;7.036;2022-09-20T01:46:33;19.50;;;6.23;;
18623;SDS011;9441;51.420;7.036;2022-09-20T01:47:37;19.93;;;6.37;;
18623;SDS011;9441;51.420;7.036;2022-09-20T01:48:46;21.83;;;7.37;;
18623;SDS011;9441;51.420;7.036;2022-09-20T01:49:51;19.93;;;7.07;;
18623;SDS011;9441;51.420;7.036;2022-09-20T01:51:04;26.00;;;7.40;;
18623;SDS011;9441;51.420;7.036;2022-09-20T01:54:06;23.43;;;6.87;;
18623;SDS011;9441;51.420;7.036;2022-09-20T01:57:07;28.73;;;7.07;;
18623;SDS011;9441;51.420;7.036;2022-09-20T01:58:54;22.53;;;7.23;;
18623;SDS011;9441;51.420;7.036;2022-09-20T02:00:23;18.53;;;7.00;;
18623;SDS011;9441;51.420;7.036;2022-09-20T02:03:09;16.97;;;7.57;;
18623;SDS011;9441;51.420;7.036;2022-09-20T02:04:46;23.70;;;7.73;;
18623;SDS011;9441;51.420;7.036;2022-09-20T02:06:17;24.83;;;8.17;;
18623;SDS011;9441;51.420;7.036;2022-09-20T02:09:21;23.07;;;7.60;;
18623;SDS011;9441;51.420;7.036;2022-09-20T02:10:41;27.73;;;8.17;;
18623;SDS011;9441;51.420;7.036;2022-09-20T02:11:58;30.53;;;8.10;;
18623;SDS011;9441;51.420;7.036;2022-09-20T02:13:21;21.30;;;8.20;;
18623;SDS011;9441;51.420;7.036;2022-09-20T02:14:30;26.50;;;8.50;;
18623;SDS011;9441;51.420;7.036;2022-09-20T02:15:51;22.50;;;8.37;;
18623;SDS011;9441;51.420;7.036;2022-09-20T02:17:12;21.30;;;8.60;;
18623;SDS011;9441;51.420;7.036;2022-09-20T02:18:20;26.90;;;8.03;;
18623;SDS011;9441;51.420;7.036;2022-09-20T02:19:39;26.07;;;8.77;;
18623;SDS011;9441;51.420;7.036;2022-09-20T02:20:59;27.27;;;8.67;;
18623;SDS011;9441;51.420;7.036;2022-09-20T02:22:16;19.07;;;8.67;;
18623;SDS011;9441;51.420;7.036;2022-09-20T02:23:34;19.00;;;8.30;;
18623;SDS011;9441;51.420;7.036;2022-09-20T02:24:49;27.90;;;8.30;;
18623;SDS011;9441;51.420;7.036;2022-09-20T02:26:01;26.90;;;8.77;;
18623;SDS011;9441;51.420;7.036;2022-09-20T02:27:13;29.90;;;8.80;;
18623;SDS011;9441;51.420;7.036;2022-09-20T02:28:24;18.63;;;8.80;;
18623;SDS011;9441;51.420;7.036;2022-09-20T02:29:41;32.30;;;8.90;;
18623;SDS011;9441;51.420;7.036;2022-09-20T02:30:46;24.43;;;8.60;;
18623;SDS011;9441;51.420;7.036;2022-09-20T02:31:59;25.77;;;8.50;;
18623;SDS011;9441;51.420;7.036;2022-09-20T02:33:34;25.03;;;9.10;;
18623;SDS011;9441;51.420;7.036;2022-09-20T02:35:00;21.87;;;7.90;;
18623;SDS011;9441;51.420;7.036;2022-09-20T02:36:21;21.90;;;8.23;;
18623;SDS011;9441;51.420;7.036;2022-09-20T02:38:58;28.83;;;8.77;;
18623;SDS011;9441;51.420;7.036;2022-09-20T02:40:12;27.00;;;8.83;;
18623;SDS011;9441;51.420;7.036;2022-09-20T02:42:55;26.80;;;8.27;;
18623;SDS011;9441;51.420;7.036;2022-09-20T02:44:06;24.53;;;8.90;;
18623;SDS011;9441;51.420;7.036;2022-09-20T02:45:17;26.40;;;8.70;;
18623;SDS011;9441;51.420;7.036;2022-09-20T02:46:27;23.67;;;8.37;;
18623;SDS011;9441;51.420;7.036;2022-09-20T02:47:34;31.00;;;9.40;;
18623;SDS011;9441;51.420;7.036;2022-09-20T02:48:41;21.40;;;9.03;;
18623;SDS011;9441;51.420;7.036;2022-09-20T02:50:01;28.60;;;9.97;;
18623;SDS011;9441;51.420;7.036;2022-09-20T02:51:23;21.27;;;8.00;;
18623;SDS011;9441;51.420;7.036;2022-09-20T02:52:32;25.93;;;8.50;;
18623;SDS011;9441;51.420;7.036;2022-09-20T02:53:42;23.70;;;8.33;;
18623;SDS011;9441;51.420;7.036;2022-09-20T02:54:50;23.87;;;8.43;;
18623;SDS011;9441;51.420;7.036;2022-09-20T02:55:59;30.00;;;8.63;;
18623;SDS011;9441;51.420;7.036;2022-09-20T02:57:10;27.17;;;8.73;;
18623;SDS011;9441;51.420;7.036;2022-09-20T02:58:22;35.13;;;9.20;;
18623;SDS011;9441;51.420;7.036;2022-09-20T02:59:31;21.23;;;8.13;;
18623;SDS011;9441;51.420;7.036;2022-09-20T03:00:41;24.37;;;8.10;;
18623;SDS011;9441;51.420;7.036;2022-09-20T03:01:52;22.33;;;7.97;;
18623;SDS011;9441;51.420;7.036;2022-09-20T03:03:03;25.80;;;7.73;;
18623;SDS011;9441;51.420;7.036;2022-09-20T03:04:13;26.03;;;8.63;;
18623;SDS011;9441;51.420;7.036;2022-09-20T03:05:23;25.37;;;8.30;;
18623;SDS011;9441;51.420;7.036;2022-09-20T03:06:32;22.90;;;7.80;;
18623;SDS011;9441;51.420;7.036;2022-09-20T03:07:41;20.83;;;8.00;;
18623;SDS011;9441;51.420;7.036;2022-09-20T03:08:56;21.47;;;8.37;;
18623;SDS011;9441;51.420;7.036;2022-09-20T03:10:05;31.00;;;9.27;;
18623;SDS011;9441;51.420;7.036;2022-09-20T03:11:16;25.43;;;8.60;;
18623;SDS011;9441;51.420;7.036;2022-09-20T03:12:28;23.90;;;8.00;;
18623;SDS011;9441;51.420;7.036;2022-09-20T03:13:42;24.37;;;8.17;;
18623;SDS011;9441;51.420;7.036;2022-09-20T03:15:06;21.03;;;7.83;;
18623;SDS011;9441;51.420;7.036;2022-09-20T03:16:20;27.63;;;8.90;;
18623;SDS011;9441;51.420;7.036;2022-09-20T03:17:36;29.83;;;8.60;;
18623;SDS011;9441;51.420;7.036;2022-09-20T03:18:47;18.43;;;7.77;;
18623;SDS011;9441;51.420;7.036;2022-09-20T03:20:03;19.60;;;8.03;;
18623;SDS011;9441;51.420;7.036;2022-09-20T03:21:17;25.83;;;8.47;;
18623;SDS011;9441;51.420;7.036;2022-09-20T03:22:30;22.87;;;8.63;;
18623;SDS011;9441;51.420;7.036;2022-09-20T03:23:47;19.20;;;7.43;;
18623;SDS011;9441;51.420;7.036;2022-09-20T03:25:07;22.07;;;7.73;;
18623;SDS011;9441;51.420;7.036;2022-09-20T03:26:40;23.50;;;8.50;;
18623;SDS011;9441;51.420;7.036;2022-09-20T03:27:49;21.47;;;8.23;;
18623;SDS011;9441;51.420;7.036;2022-09-20T03:29:07;18.37;;;7.70;;
18623;SDS011;9441;51.420;7.036;2022-09-20T03:30:20;32.13;;;8.40;;
18623;SDS011;9441;51.420;7.036;2022-09-20T03:31:36;23.50;;;7.63;;
18623;SDS011;9441;51.420;7.036;2022-09-20T03:32:53;26.00;;;8.67;;
18623;SDS011;9441;51.420;7.036;2022-09-20T03:34:03;21.83;;;8.73;;
18623;SDS011;9441;51.420;7.036;2022-09-20T03:35:18;29.20;;;8.50;;
18623;SDS011;9441;51.420;7.036;2022-09-20T03:36:34;16.00;;;7.47;;
18623;SDS011;9441;51.420;7.036;2022-09-20T03:37:59;21.73;;;7.63;;
18623;SDS011;9441;51.420;7.036;2022-09-20T03:39:22;23.87;;;8.00;;
18623;SDS011;9441;51.420;7.036;2022-09-20T03:40:50;25.47;;;8.47;;
18623;SDS011;9441;51.420;7.036;2022-09-20T03:42:01;26.23;;;8.07;;
18623;SDS011;9441;51.420;7.036;2022-09-20T03:43:16;22.80;;;8.30;;
18623;SDS011;9441;51.420;7.036;2022-09-20T03:44:30;25.87;;;8.57;;
18623;SDS011;9441;51.420;7.036;2022-09-20T03:45:57;22.40;;;8.60;;
18623;SDS011;9441;51.420;7.036;2022-09-20T03:47:09;20.83;;;8.57;;
18623;SDS011;9441;51.420;7.036;2022-09-20T03:48:47;24.67;;;8.33;;
18623;SDS011;9441;51.420;7.036;2022-09-20T03:50:31;28.87;;;9.53;;
18623;SDS011;9441;51.420;7.036;2022-09-20T03:51:41;26.80;;;8.53;;
18623;SDS011;9441;51.420;7.036;2022-09-20T03:52:52;25.70;;;8.17;;
18623;SDS011;9441;51.420;7.036;2022-09-20T03:57:18;27.23;;;8.53;;
18623;SDS011;9441;51.420;7.036;2022-09-20T03:58:38;21.43;;;8.47;;
18623;SDS011;9441;51.420;7.036;2022-09-20T04:00:01;24.10;;;8.37;;
18623;SDS011;9441;51.420;7.036;2022-09-20T04:01:21;27.00;;;8.43;;
18623;SDS011;9441;51.420;7.036;2022-09-20T04:02:39;30.07;;;8.27;;
18623;SDS011;9441;51.420;7.036;2022-09-20T04:03:55;29.60;;;8.67;;
18623;SDS011;9441;51.420;7.036;2022-09-20T04:05:05;26.60;;;9.10;;
18623;SDS011;9441;51.420;7.036;2022-09-20T04:06:18;27.40;;;8.80;;
18623;SDS011;9441;51.420;7.036;2022-09-20T04:07:36;22.53;;;8.53;;
18623;SDS011;9441;51.420;7.036;2022-09-20T04:09:07;26.63;;;9.10;;
18623;SDS011;9441;51.420;7.036;2022-09-20T04:10:35;26.37;;;8.73;;
18623;SDS011;9441;51.420;7.036;2022-09-20T04:11:45;27.70;;;8.23;;
18623;SDS011;9441;51.420;7.036;2022-09-20T04:12:58;22.07;;;8.23;;
18623;SDS011;9441;51.420;7.036;2022-09-20T04:14:11;30.07;;;8.87;;
18623;SDS011;9441;51.420;7.036;2022-09-20T04:15:22;29.30;;;9.23;;
18623;SDS011;9441;51.420;7.036;2022-09-20T04:16:33;22.23;;;8.17;;
18623;SDS011;9441;51.420;7.036;2022-09-20T04:17:42;19.77;;;8.43;;
18623;SDS011;9441;51.420;7.036;2022-09-20T04:18:49;27.80;;;8.53;;
18623;SDS011;9441;51.420;7.036;2022-09-20T04:20:00;26.40;;;8.20;;
18623;SDS011;9441;51.420;7.036;2022-09-20T04:21:06;29.57;;;8.73;;
18623;SDS011;9441;51.420;7.036;2022-09-20T04:22:14;29.33;;;8.00;;
18623;SDS011;9441;51.420;7.036;2022-09-20T04:23:23;24.00;;;8.57;;
18623;SDS011;9441;51.420;7.036;2022-09-20T04:24:34;27.43;;;8.67;;
18623;SDS011;9441;51.420;7.036;2022-09-20T04:25:41;22.93;;;8.30;;
18623;SDS011;9441;51.420;7.036;2022-09-20T04:26:47;25.80;;;8.73;;
18623;SDS011;9441;51.420;7.036;2022-09-20T04:27:53;29.20;;;8.33;;
18623;SDS011;9441;51.420;7.036;2022-09-20T04:29:12;26.47;;;9.33;;
18623;SDS011;9441;51.420;7.036;2022-09-20T04:30:25;26.00;;;7.43;;
18623;SDS011;9441;51.420;7.036;2022-09-20T04:31:32;25.13;;;8.33;;
18623;SDS011;9441;51.420;7.036;2022-09-20T04:32:41;24.00;;;8.30;;
18623;SDS011;9441;51.420;7.036;2022-09-20T04:33:49;22.67;;;8.00;;
18623;SDS011;9441;51.420;7.036;2022-09-20T04:34:56;19.70;;;8.70;;
18623;SDS011;9441;51.420;7.036;2022-09-20T04:36:25;19.13;;;8.30;;
18623;SDS011;9441;51.420;7.036;2022-09-20T04:37:37;23.83;;;8.40;;
18623;SDS011;9441;51.420;7.036;2022-09-20T04:38:40;25.23;;;8.23;;
18623;SDS011;9441;51.420;7.036;2022-09-20T04:39:45;30.90;;;8.57;;
18623;SDS011;9441;51.420;7.036;2022-09-20T04:40:56;23.70;;;8.13;;
18623;SDS011;9441;51.420;7.036;2022-09-20T04:44:09;22.93;;;8.37;;
18623;SDS011;9441;51.420;7.036;2022-09-20T04:45:35;30.63;;;9.47;;
18623;SDS011;9441;51.420;7.036;2022-09-20T04:47:06;26.83;;;8.40;;
18623;SDS011;9441;51.420;7.036;2022-09-20T04:48:41;27.33;;;8.60;;
18623;SDS011;9441;51.420;7.036;2022-09-20T04:51:52;29.53;;;7.90;;
18623;SDS011;9441;51.420;7.036;2022-09-20T04:54:46;23.63;;;8.10;;
18623;SDS011;9441;51.420;7.036;2022-09-20T04:56:06;22.93;;;8.40;;
18623;SDS011;9441;51.420;7.036;2022-09-20T04:57:39;21.93;;;8.50;;
18623;SDS011;9441;51.420;7.036;2022-09-20T04:59:05;27.77;;;8.53;;
18623;SDS011;9441;51.420;7.036;2022-09-20T05:00:08;20.43;;;8.50;;
18623;SDS011;9441;51.420;7.036;2022-09-20T05:05:04;26.90;;;8.60;;
18623;SDS011;9441;51.420;7.036;2022-09-20T05:09:29;26.83;;;8.23;;
18623;SDS011;9441;51.420;7.036;2022-09-20T05:10:52;19.47;;;8.97;;
18623;SDS011;9441;51.420;7.036;2022-09-20T05:12:18;20.03;;;7.60;;
18623;SDS011;9441;51.420;7.036;2022-09-20T05:13:38;28.50;;;8.20;;
18623;SDS011;9441;51.420;7.036;2022-09-20T05:15:02;22.97;;;8.67;;
18623;SDS011;9441;51.420;7.036;2022-09-20T05:16:13;22.87;;;7.43;;
18623;SDS011;9441;51.420;7.036;2022-09-20T05:17:23;26.90;;;9.27;;
18623;SDS011;9441;51.420;7.036;2022-09-20T05:18:44;21.47;;;8.90;;
18623;SDS011;9441;51.420;7.036;2022-09-20T05:20:08;18.97;;;7.50;;
18623;SDS011;9441;51.420;7.036;2022-09-20T05:21:41;24.20;;;9.00;;
18623;SDS011;9441;51.420;7.036;2022-09-20T05:22:59;27.03;;;9.07;;
18623;SDS011;9441;51.420;7.036;2022-09-20T05:24:15;29.13;;;9.20;;
18623;SDS011;9441;51.420;7.036;2022-09-20T05:25:32;22.77;;;8.97;;
18623;SDS011;9441;51.420;7.036;2022-09-20T05:27:00;24.63;;;8.00;;
18623;SDS011;9441;51.420;7.036;2022-09-20T05:28:15;23.00;;;8.37;;
18623;SDS011;9441;51.420;7.036;2022-09-20T05:29:24;20.00;;;8.20;;
18623;SDS011;9441;51.420;7.036;2022-09-20T05:30:31;24.03;;;8.63;;
18623;SDS011;9441;51.420;7.036;2022-09-20T05:31:39;20.20;;;8.80;;
18623;SDS011;9441;51.420;7.036;2022-09-20T05:32:46;23.07;;;8.97;;
18623;SDS011;9441;51.420;7.036;2022-09-20T05:34:01;17.20;;;7.90;;
18623;SDS011;9441;51.420;7.036;2022-09-20T05:35:11;18.70;;;8.43;;
18623;SDS011;9441;51.420;7.036;2022-09-20T05:36:22;22.80;;;9.00;;
18623;SDS011;9441;51.420;7.036;2022-09-20T05:37:33;20.80;;;9.10;;
18623;SDS011;9441;51.420;7.036;2022-09-20T05:38:44;22.80;;;9.10;;
18623;SDS011;9441;51.420;7.036;2022-09-20T05:39:51;20.57;;;8.93;;
18623;SDS011;9441;51.420;7.036;2022-09-20T05:41:09;21.83;;;8.67;;
18623;SDS011;9441;51.420;7.036;2022-09-20T05:42:18;21.03;;;8.83;;
18623;SDS011;9441;51.420;7.036;2022-09-20T05:43:29;24.47;;;9.57;;
18623;SDS011;9441;51.420;7.036;2022-09-20T05:44:37;24.73;;;9.53;;
18623;SDS011;9441;51.420;7.036;2022-09-20T05:45:57;22.03;;;9.73;;
18623;SDS011;9441;51.420;7.036;2022-09-20T05:47:07;22.67;;;8.40;;
18623;SDS011;9441;51.420;7.036;2022-09-20T05:48:20;20.73;;;7.73;;
18623;SDS011;9441;51.420;7.036;2022-09-20T05:49:32;28.20;;;8.57;;
18623;SDS011;9441;51.420;7.036;2022-09-20T05:50:43;27.23;;;9.13;;
18623;SDS011;9441;51.420;7.036;2022-09-20T05:51:53;25.53;;;8.97;;
18623;SDS011;9441;51.420;7.036;2022-09-20T05:53:23;24.67;;;8.63;;
18623;SDS011;9441;51.420;7.036;2022-09-20T05:55:00;20.27;;;8.40;;
18623;SDS011;9441;51.420;7.036;2022-09-20T05:56:19;19.60;;;8.60;;
18623;SDS011;9441;51.420;7.036;2022-09-20T05:57:31;22.10;;;8.60;;
18623;SDS011;9441;51.420;7.036;2022-09-20T05:58:48;28.50;;;8.90;;
18623;SDS011;9441;51.420;7.036;2022-09-20T05:59:57;26.20;;;9.40;;
18623;SDS011;9441;51.420;7.036;2022-09-20T06:01:13;23.57;;;8.53;;
18623;SDS011;9441;51.420;7.036;2022-09-20T06:02:23;21.15;;;8.95;;
18623;SDS011;9441;51.420;7.036;2022-09-20T06:03:34;27.73;;;8.90;;
18623;SDS011;9441;51.420;7.036;2022-09-20T06:04:43;26.63;;;8.63;;
18623;SDS011;9441;51.420;7.036;2022-09-20T06:05:54;19.27;;;8.30;;
18623;SDS011;9441;51.420;7.036;2022-09-20T06:07:02;21.77;;;7.93;;
18623;SDS011;9441;51.420;7.036;2022-09-20T06:10:04;20.10;;;7.57;;
18623;SDS011;9441;51.420;7.036;2022-09-20T06:13:00;22.73;;;8.00;;
18623;SDS011;9441;51.420;7.036;2022-09-20T06:14:18;25.73;;;9.13;;
18623;SDS011;9441;51.420;7.036;2022-09-20T06:15:28;21.27;;;8.57;;
18623;SDS011;9441;51.420;7.036;2022-09-20T06:16:39;24.23;;;8.47;;
18623;SDS011;9441;51.420;7.036;2022-09-20T06:17:47;24.80;;;9.67;;
18623;SDS011;9441;51.420;7.036;2022-09-20T06:18:58;18.77;;;9.17;;
18623;SDS011;9441;51.420;7.036;2022-09-20T06:20:12;27.43;;;9.77;;
18623;SDS011;9441;51.420;7.036;2022-09-20T06:21:22;19.13;;;8.37;;
18623;SDS011;9441;51.420;7.036;2022-09-20T06:22:31;21.80;;;8.83;;
18623;SDS011;9441;51.420;7.036;2022-09-20T06:23:37;20.43;;;8.03;;
18623;SDS011;9441;51.420;7.036;2022-09-20T06:24:40;26.43;;;8.70;;
18623;SDS011;9441;51.420;7.036;2022-09-20T06:25:47;17.40;;;8.43;;
18623;SDS011;9441;51.420;7.036;2022-09-20T06:26:52;28.53;;;8.97;;
18623;SDS011;9441;51.420;7.036;2022-09-20T06:27:59;27.20;;;8.73;;
18623;SDS011;9441;51.420;7.036;2022-09-20T06:29:08;19.73;;;8.90;;
18623;SDS011;9441;51.420;7.036;2022-09-20T06:30:13;26.00;;;8.70;;
18623;SDS011;9441;51.420;7.036;2022-09-20T06:31:18;27.30;;;9.90;;
18623;SDS011;9441;51.420;7.036;2022-09-20T06:32:21;20.40;;;8.07;;
18623;SDS011;9441;51.420;7.036;2022-09-20T06:33:22;20.83;;;8.67;;
18623;SDS011;9441;51.420;7.036;2022-09-20T06:34:25;28.47;;;8.90;;
18623;SDS011;9441;51.420;7.036;2022-09-20T06:35:31;23.43;;;9.33;;
18623;SDS011;9441;51.420;7.036;2022-09-20T06:36:38;22.07;;;8.87;;
18623;SDS011;9441;51.420;7.036;2022-09-20T06:38:03;21.53;;;8.83;;
18623;SDS011;9441;51.420;7.036;2022-09-20T06:39:38;23.13;;;8.80;;
18623;SDS011;9441;51.420;7.036;2022-09-20T06:41:06;23.43;;;9.13;;
18623;SDS011;9441;51.420;7.036;2022-09-20T06:42:31;22.27;;;9.00;;
18623;SDS011;9441;51.420;7.036;2022-09-20T06:43:33;21.33;;;9.67;;
18623;SDS011;9441;51.420;7.036;2022-09-20T06:44:37;28.33;;;9.57;;
18623;SDS011;9441;51.420;7.036;2022-09-20T06:45:42;31.00;;;10.03;;
18623;SDS011;9441;51.420;7.036;2022-09-20T06:46:44;28.37;;;9.43;;
18623;SDS011;9441;51.420;7.036;2022-09-20T06:47:46;25.00;;;9.83;;
18623;SDS011;9441;51.420;7.036;2022-09-20T06:48:47;34.10;;;10.00;;
18623;SDS011;9441;51.420;7.036;2022-09-20T06:49:49;28.70;;;9.23;;
18623;SDS011;9441;51.420;7.036;2022-09-20T06:50:50;30.10;;;9.27;;
18623;SDS011;9441;51.420;7.036;2022-09-20T06:51:52;29.50;;;9.23;;
18623;SDS011;9441;51.420;7.036;2022-09-20T06:52:55;39.30;;;9.90;;
18623;SDS011;9441;51.420;7.036;2022-09-20T06:53:56;26.97;;;9.40;;
18623;SDS011;9441;51.420;7.036;2022-09-20T06:54:58;23.07;;;8.57;;
18623;SDS011;9441;51.420;7.036;2022-09-20T06:55:59;29.37;;;9.33;;
18623;SDS011;9441;51.420;7.036;2022-09-20T06:57:02;22.77;;;8.83;;
18623;SDS011;9441;51.420;7.036;2022-09-20T06:58:07;24.90;;;8.90;;
18623;SDS011;9441;51.420;7.036;2022-09-20T06:59:09;23.80;;;9.20;;
18623;SDS011;9441;51.420;7.036;2022-09-20T07:00:12;26.97;;;8.93;;
18623;SDS011;9441;51.420;7.036;2022-09-20T07:01:15;24.87;;;8.43;;
18623;SDS011;9441;51.420;7.036;2022-09-20T07:02:17;26.10;;;8.53;;
18623;SDS011;9441;51.420;7.036;2022-09-20T07:03:19;25.50;;;8.90;;
18623;SDS011;9441;51.420;7.036;2022-09-20T07:04:20;23.77;;;8.27;;
18623;SDS011;9441;51.420;7.036;2022-09-20T07:05:22;21.37;;;8.57;;
18623;SDS011;9441;51.420;7.036;2022-09-20T07:06:25;26.37;;;9.27;;
18623;SDS011;9441;51.420;7.036;2022-09-20T07:07:28;24.00;;;9.30;;
18623;SDS011;9441;51.420;7.036;2022-09-20T07:08:29;22.70;;;8.73;;
18623;SDS011;9441;51.420;7.036;2022-09-20T07:09:31;30.50;;;9.13;;
18623;SDS011;9441;51.420;7.036;2022-09-20T07:10:33;26.10;;;8.83;;
18623;SDS011;9441;51.420;7.036;2022-09-20T07:11:35;21.70;;;8.60;;
18623;SDS011;9441;51.420;7.036;2022-09-20T07:12:37;20.37;;;8.77;;
18623;SDS011;9441;51.420;7.036;2022-09-20T07:13:39;25.27;;;9.10;;
18623;SDS011;9441;51.420;7.036;2022-09-20T07:14:42;26.23;;;9.30;;
18623;SDS011;9441;51.420;7.036;2022-09-20T07:15:44;21.37;;;8.80;;
18623;SDS011;9441;51.420;7.036;2022-09-20T07:16:46;25.13;;;8.87;;
18623;SDS011;9441;51.420;7.036;2022-09-20T07:17:46;22.97;;;8.60;;
18623;SDS011;9441;51.420;7.036;2022-09-20T07:18:50;26.87;;;8.83;;
18623;SDS011;9441;51.420;7.036;2022-09-20T07:19:52;25.50;;;8.90;;
18623;SDS011;9441;51.420;7.036;2022-09-20T07:20:53;21.83;;;8.63;;
18623;SDS011;9441;51.420;7.036;2022-09-20T07:21:58;23.43;;;8.33;;
18623;SDS011;9441;51.420;7.036;2022-09-20T07:23:00;21.90;;;7.57;;
18623;SDS011;9441;51.420;7.036;2022-09-20T07:24:02;26.60;;;8.83;;
18623;SDS011;9441;51.420;7.036;2022-09-20T07:25:03;24.73;;;8.30;;
18623;SDS011;9441;51.420;7.036;2022-09-20T07:26:11;26.63;;;8.70;;
18623;SDS011;9441;51.420;7.036;2022-09-20T07:27:18;18.27;;;8.60;;
18623;SDS011;9441;51.420;7.036;2022-09-20T07:28:20;21.80;;;8.43;;
18623;SDS011;9441;51.420;7.036;2022-09-20T07:29:23;24.57;;;8.70;;
18623;SDS011;9441;51.420;7.036;2022-09-20T07:30:26;29.60;;;8.30;;
18623;SDS011;9441;51.420;7.036;2022-09-20T07:31:27;21.17;;;8.40;;
18623;SDS011;9441;51.420;7.036;2022-09-20T07:32:30;22.93;;;8.47;;